This is the latest recevied weather packets stored in our database for station/object OM3WYM-13. If no packets are shown the sender has not sent any weather packets the latest 10 day(s).
| Time | Temp. | Humidity | Pressure | Rain* | Wind** | Luminosity | Snow |
|---|---|---|---|---|---|---|---|
| 1778132408 | 16.11° C | 66% | 1011.3 hPa | - | - | - | - |
| 1778131808 | 15° C | 71% | 1011.3 hPa | - | - | - | - |
| 1778131208 | 13.89° C | 75% | 1011.5 hPa | - | - | - | - |
| 1778130608 | 13.33° C | 78% | 1011.6 hPa | - | - | - | - |
| 1778130008 | 12.78° C | 80% | 1011.4 hPa | - | - | - | - |
| 1778129408 | 12.78° C | 81% | 1011.4 hPa | - | - | - | - |
| 1778128808 | 12.22° C | 81% | 1011.6 hPa | - | - | - | - |
| 1778128208 | 12.22° C | 83% | 1011.7 hPa | - | - | - | - |
| 1778127608 | 11.67° C | 84% | 1011.8 hPa | - | - | - | - |
| 1778127008 | 11.11° C | 85% | 1011.8 hPa | - | - | - | - |
| 1778126408 | 11.11° C | 86% | 1011.8 hPa | - | - | - | - |
| 1778125808 | 11.11° C | 87% | 1011.8 hPa | - | - | - | - |
| 1778125208 | 11.11° C | 87% | 1011.7 hPa | - | - | - | - |
| 1778124608 | 11.11° C | 88% | 1011.6 hPa | - | - | - | - |
| 1778124008 | 11.11° C | 87% | 1011.7 hPa | - | - | - | - |
| 1778123408 | 11.11° C | 86% | 1011.8 hPa | - | - | - | - |
| 1778122808 | 11.11° C | 84% | 1011.6 hPa | - | - | - | - |
| 1778122208 | 11.11° C | 86% | 1011.5 hPa | - | - | - | - |
| 1778121608 | 11.11° C | 85% | 1011.3 hPa | - | - | - | - |
| 1778121008 | 11.11° C | 86% | 1011.1 hPa | - | - | - | - |
| 1778120408 | 11.11° C | 86% | 1010.9 hPa | - | - | - | - |
| 1778119808 | 11.11° C | 84% | 1010.8 hPa | - | - | - | - |
| 1778119208 | 11.67° C | 84% | 1010.8 hPa | - | - | - | - |
| 1778118608 | 11.11° C | 84% | 1010.8 hPa | - | - | - | - |
| 1778118008 | 11.11° C | 83% | 1010.9 hPa | - | - | - | - |
* Rain since midnight (hover to see other rain measurements)
** Current wind speed in m/s (hover to see current wind gust speed)